Black River Falls, Wisconsin
Current Conditions -  °F | °C
As of 5:55 AM on Saturday 01 Nov 2014 (Local Time) from KBCK Reporting Station
Clear Clear  
Wind Chill: 11°   Ceiling: Unl
Heat Index: 11°   Visibility: 10mi
Dew Point:   Wind: 0mph
Humidity: 89%   Direction: NA
Pressure: 30.49"   Gusts: NA
Location:  44.29°N, 90.85°W
Report Text: KBCK 011055Z AUTO 00000KT 10SM CLR M11/M13 A3049 RMK AO2 T11151130
Loading
Personal Weather Stations






























Interactive Weather Map
Tropical Storm Tracking
New forecast layout! Learn more

10-Day Weather Forecast

Advertisements
Track Severe Weather on mobile